createdAt,value
2018-09-17T00:00:12.262Z,1010.4
2018-09-17T00:00:52.600Z,1010.38
2018-09-17T00:01:33.070Z,1010.43
2018-09-17T00:02:13.442Z,1010.39
2018-09-17T00:02:53.863Z,1010.35
2018-09-17T00:03:34.230Z,1010.41
2018-09-17T00:04:14.744Z,1010.41
2018-09-17T00:04:55.033Z,1010.39
2018-09-17T00:05:35.552Z,1010.38
2018-09-17T00:06:15.893Z,1010.38
2018-09-17T00:06:56.326Z,1010.4
2018-09-17T00:07:36.736Z,1010.38
2018-09-17T00:08:17.157Z,1010.41
2018-09-17T00:08:57.597Z,1010.34
2018-09-17T00:09:38.049Z,1010.42
2018-09-17T00:10:18.325Z,1010.39
2018-09-17T00:10:58.919Z,1010.42
2018-09-17T00:11:39.267Z,1010.41
2018-09-17T00:12:19.599Z,1010.4
2018-09-17T00:13:00.044Z,1010.39
2018-09-17T00:13:40.398Z,1010.42
2018-09-17T00:14:20.839Z,1010.4
2018-09-17T00:15:01.304Z,1010.41
2018-09-17T00:15:41.789Z,1010.37
2018-09-17T00:16:22.193Z,1010.37
2018-09-17T00:17:02.630Z,1010.38
2018-09-17T00:17:43.036Z,1010.38
2018-09-17T00:18:23.363Z,1010.36
2018-09-17T00:19:03.773Z,1010.42
2018-09-17T00:19:44.238Z,1010.4
2018-09-17T00:20:24.616Z,1010.41
2018-09-17T00:21:04.960Z,1010.45
2018-09-17T00:21:45.412Z,1010.4
2018-09-17T00:22:25.775Z,1010.41
2018-09-17T00:23:06.217Z,1010.43
2018-09-17T00:23:46.611Z,1010.44
2018-09-17T00:24:27.103Z,1010.43
2018-09-17T00:25:07.366Z,1010.44
2018-09-17T00:25:47.789Z,1010.4
2018-09-17T00:26:28.156Z,1010.41
2018-09-17T00:27:08.696Z,1010.39
2018-09-17T00:27:49.078Z,1010.4
2018-09-17T00:28:29.488Z,1010.38
2018-09-17T00:29:09.943Z,1010.42
2018-09-17T00:29:50.280Z,1010.41
2018-09-17T00:30:30.744Z,1010.36
2018-09-17T00:31:11.160Z,1010.39
2018-09-17T00:31:51.543Z,1010.41
2018-09-17T00:32:31.962Z,1010.43
2018-09-17T00:33:12.390Z,1010.47
2018-09-17T00:33:52.718Z,1010.41
2018-09-17T00:34:33.244Z,1010.45
2018-09-17T00:35:13.649Z,1010.43
2018-09-17T00:35:54.010Z,1010.44
2018-09-17T00:36:34.419Z,1010.44
2018-09-17T00:37:14.805Z,1010.39
2018-09-17T00:37:55.204Z,1010.42
2018-09-17T00:38:35.581Z,1010.45
2018-09-17T00:39:15.990Z,1010.41
2018-09-17T00:39:56.440Z,1010.46
2018-09-17T00:40:36.811Z,1010.42
2018-09-17T00:41:17.308Z,1010.42
2018-09-17T00:41:57.715Z,1010.42
2018-09-17T00:42:38.076Z,1010.45
2018-09-17T00:43:18.503Z,1010.44
2018-09-17T00:43:58.867Z,1010.41
2018-09-17T00:44:39.250Z,1010.44
2018-09-17T00:45:19.730Z,1010.45
2018-09-17T00:46:00.126Z,1010.41
2018-09-17T00:46:40.540Z,1010.44
2018-09-17T00:47:21.118Z,1010.43
2018-09-17T00:48:01.494Z,1010.45
2018-09-17T00:48:41.917Z,1010.45
2018-09-17T00:49:22.357Z,1010.44
2018-09-17T00:50:02.791Z,1010.44
2018-09-17T00:50:43.132Z,1010.45
2018-09-17T00:51:23.634Z,1010.46
2018-09-17T00:52:04.027Z,1010.44
2018-09-17T00:52:44.395Z,1010.4
2018-09-17T00:53:24.897Z,1010.41
2018-09-17T00:54:05.212Z,1010.42
2018-09-17T00:54:45.629Z,1010.39
2018-09-17T00:55:26.113Z,1010.39
2018-09-17T00:56:06.433Z,1010.37
2018-09-17T00:56:46.808Z,1010.41
2018-09-17T00:57:27.235Z,1010.37
2018-09-17T00:58:07.657Z,1010.37
2018-09-17T00:58:48.125Z,1010.39
2018-09-17T00:59:28.510Z,1010.4
2018-09-17T01:00:08.976Z,1010.4
2018-09-17T01:00:49.302Z,1010.43
2018-09-17T01:01:29.699Z,1010.44
2018-09-17T01:02:10.080Z,1010.45
2018-09-17T01:02:50.523Z,1010.45
2018-09-17T01:03:30.916Z,1010.47
2018-09-17T01:04:11.428Z,1010.44
2018-09-17T01:04:51.784Z,1010.47
2018-09-17T01:05:32.147Z,1010.49
2018-09-17T01:06:12.641Z,1010.49
2018-09-17T01:06:52.958Z,1010.49
2018-09-17T01:07:33.358Z,1010.47
2018-09-17T01:08:13.751Z,1010.47
2018-09-17T01:08:54.255Z,1010.48
2018-09-17T01:09:34.680Z,1010.5
2018-09-17T01:10:15.017Z,1010.54
2018-09-17T01:10:55.428Z,1010.48
2018-09-17T01:11:35.795Z,1010.56
2018-09-17T01:12:16.199Z,1010.54
2018-09-17T01:12:57.511Z,1010.58
2018-09-17T01:13:37.150Z,1010.57
2018-09-17T01:14:17.535Z,1010.6
2018-09-17T01:14:58.016Z,1010.59
2018-09-17T01:15:38.377Z,1010.57
2018-09-17T01:16:18.788Z,1010.6
2018-09-17T01:16:59.174Z,1010.58
2018-09-17T01:17:39.593Z,1010.6
2018-09-17T01:18:21.709Z,1010.62
2018-09-17T01:19:02.031Z,1010.6
2018-09-17T01:19:42.444Z,1010.66
2018-09-17T01:20:22.847Z,1010.62
2018-09-17T01:21:03.253Z,1010.62
2018-09-17T01:21:43.699Z,1010.65
2018-09-17T01:22:24.116Z,1010.64
2018-09-17T01:23:04.403Z,1010.66
2018-09-17T01:23:44.848Z,1010.66
2018-09-17T01:24:25.265Z,1010.67
2018-09-17T01:25:05.739Z,1010.66
2018-09-17T01:25:46.165Z,1010.69
2018-09-17T01:26:26.480Z,1010.68
2018-09-17T01:27:06.989Z,1010.7
2018-09-17T01:27:47.560Z,1010.7
2018-09-17T01:28:27.899Z,1010.73
2018-09-17T01:29:08.359Z,1010.7
2018-09-17T01:29:48.824Z,1010.75
2018-09-17T01:30:29.334Z,1010.75
2018-09-17T01:31:09.611Z,1010.8
2018-09-17T01:31:50.080Z,1010.79
2018-09-17T01:32:30.413Z,1010.76
2018-09-17T01:33:10.912Z,1010.75
2018-09-17T01:33:51.263Z,1010.75
2018-09-17T01:34:31.690Z,1010.74
2018-09-17T01:35:12.114Z,1010.67
2018-09-17T01:35:52.601Z,1010.69
2018-09-17T01:36:32.954Z,1010.69
2018-09-17T01:37:13.365Z,1010.7
2018-09-17T01:37:53.860Z,1010.64
2018-09-17T01:38:34.247Z,1010.64
2018-09-17T01:39:14.744Z,1010.67
2018-09-17T01:39:55.016Z,1010.63
2018-09-17T01:40:35.500Z,1010.64
2018-09-17T01:41:15.982Z,1010.65
2018-09-17T01:41:56.306Z,1010.63
2018-09-17T01:42:36.707Z,1010.61
2018-09-17T01:43:17.075Z,1010.61
2018-09-17T01:43:57.581Z,1010.63
2018-09-17T01:44:38.021Z,1010.62
2018-09-17T01:45:18.328Z,1010.57
2018-09-17T01:45:58.744Z,1010.58
2018-09-17T01:46:39.490Z,1010.58
2018-09-17T01:47:19.811Z,1010.59
2018-09-17T01:48:00.243Z,1010.57
2018-09-17T01:48:40.632Z,1010.62
2018-09-17T01:49:21.019Z,1010.6
2018-09-17T01:50:01.468Z,1010.61
2018-09-17T01:50:41.798Z,1010.62
2018-09-17T01:51:22.279Z,1010.61
2018-09-17T01:52:02.705Z,1010.64
2018-09-17T01:52:43.234Z,1010.64
2018-09-17T01:53:23.504Z,1010.64
2018-09-17T01:54:04.008Z,1010.64
2018-09-17T01:54:44.455Z,1010.68
2018-09-17T01:55:24.965Z,1010.72
2018-09-17T01:56:05.371Z,1010.74
2018-09-17T01:56:45.678Z,1010.76
2018-09-17T01:57:26.026Z,1010.75
2018-09-17T01:58:06.504Z,1010.77
2018-09-17T01:58:46.880Z,1010.76
2018-09-17T01:59:27.289Z,1010.72
2018-09-17T02:00:07.792Z,1010.73
2018-09-17T02:00:48.144Z,1010.73
2018-09-17T02:01:28.469Z,1010.71
2018-09-17T02:02:08.943Z,1010.69
2018-09-17T02:02:49.350Z,1010.67
2018-09-17T02:03:29.739Z,1010.65
2018-09-17T02:04:10.168Z,1010.62
2018-09-17T02:04:50.663Z,1010.61
2018-09-17T02:05:31.668Z,1010.62
2018-09-17T02:06:18.657Z,1010.59
2018-09-17T02:06:59.084Z,1010.56
2018-09-17T02:07:39.546Z,1010.55
2018-09-17T02:08:20.056Z,1010.58
2018-09-17T02:09:00.400Z,1010.56
2018-09-17T02:09:40.801Z,1010.54
2018-09-17T02:10:21.143Z,1010.55
2018-09-17T02:11:01.485Z,1010.53
2018-09-17T02:11:41.960Z,1010.53
2018-09-17T02:12:22.310Z,1010.56
2018-09-17T02:13:02.710Z,1010.57
2018-09-17T02:13:43.270Z,1010.58
2018-09-17T02:14:23.543Z,1010.57
2018-09-17T02:15:04.045Z,1010.6
2018-09-17T02:15:44.449Z,1010.59
2018-09-17T02:16:24.780Z,1010.62
2018-09-17T02:17:05.139Z,1010.63
2018-09-17T02:17:45.571Z,1010.66
2018-09-17T02:18:25.996Z,1010.65
2018-09-17T02:19:06.432Z,1010.64
2018-09-17T02:19:46.903Z,1010.65
2018-09-17T02:20:27.162Z,1010.68
2018-09-17T02:21:07.693Z,1010.65
2018-09-17T02:21:47.981Z,1010.65
2018-09-17T02:22:28.368Z,1010.63
2018-09-17T02:23:08.855Z,1010.6
2018-09-17T02:23:49.312Z,1010.61
2018-09-17T02:24:29.826Z,1010.63
2018-09-17T02:25:10.199Z,1010.58
2018-09-17T02:25:50.517Z,1010.54
2018-09-17T02:26:31.025Z,1010.54
2018-09-17T02:27:11.388Z,1010.51
2018-09-17T02:27:51.797Z,1010.51
2018-09-17T02:28:32.248Z,1010.47
2018-09-17T02:29:12.606Z,1010.49
2018-09-17T02:29:53.017Z,1010.47
2018-09-17T02:30:42.579Z,1010.52
2018-09-17T02:31:20.630Z,1010.44
2018-09-17T02:32:01.051Z,1010.49
2018-09-17T02:32:41.499Z,1010.48
2018-09-17T02:33:21.891Z,1010.48
2018-09-17T02:34:02.275Z,1010.47
2018-09-17T02:34:42.651Z,1010.52
2018-09-17T02:35:23.071Z,1010.46
2018-09-17T02:36:03.502Z,1010.46
2018-09-17T02:36:43.856Z,1010.48
2018-09-17T02:37:24.287Z,1010.44
2018-09-17T02:38:04.765Z,1010.41
2018-09-17T02:38:45.187Z,1010.35
2018-09-17T02:39:25.694Z,1010.33
2018-09-17T02:40:05.930Z,1010.34
2018-09-17T02:40:46.393Z,1010.31
2018-09-17T02:41:26.881Z,1010.31
2018-09-17T02:42:07.254Z,1010.32
2018-09-17T02:42:47.730Z,1010.35
2018-09-17T02:43:28.149Z,1010.35
2018-09-17T02:44:08.540Z,1010.38
2018-09-17T02:44:48.923Z,1010.37
2018-09-17T02:45:29.442Z,1010.38
2018-09-17T02:46:10.517Z,1010.4
2018-09-17T02:46:50.958Z,1010.39
2018-09-17T02:47:31.343Z,1010.36
2018-09-17T02:48:11.799Z,1010.37
2018-09-17T02:48:52.214Z,1010.36
2018-09-17T02:49:32.611Z,1010.37
2018-09-17T02:50:12.952Z,1010.36
2018-09-17T02:50:53.395Z,1010.37
2018-09-17T02:51:33.752Z,1010.38
2018-09-17T02:52:14.161Z,1010.38
2018-09-17T02:52:54.590Z,1010.37
2018-09-17T02:53:35.202Z,1010.31
2018-09-17T02:54:15.527Z,1010.3
2018-09-17T02:54:55.857Z,1010.33
2018-09-17T02:55:36.172Z,1010.31
2018-09-17T02:56:16.669Z,1010.31
2018-09-17T02:56:57.101Z,1010.37
2018-09-17T02:57:37.455Z,1010.33
2018-09-17T02:58:17.905Z,1010.35
2018-09-17T02:58:58.237Z,1010.38
2018-09-17T02:59:38.625Z,1010.39
2018-09-17T03:00:18.960Z,1010.41
2018-09-17T03:00:59.385Z,1010.37
2018-09-17T03:01:39.796Z,1010.35
2018-09-17T03:02:20.269Z,1010.33
2018-09-17T03:03:00.723Z,1010.34
2018-09-17T03:03:41.075Z,1010.34
2018-09-17T03:04:21.458Z,1010.32
2018-09-17T03:05:01.913Z,1010.31
2018-09-17T03:05:42.271Z,1010.31
2018-09-17T03:06:22.690Z,1010.3
2018-09-17T03:07:03.201Z,1010.3
2018-09-17T03:07:43.479Z,1010.31
2018-09-17T03:08:23.944Z,1010.3
2018-09-17T03:09:04.467Z,1010.28
2018-09-17T03:09:44.821Z,1010.34
2018-09-17T03:10:25.553Z,1010.29
2018-09-17T03:11:05.715Z,1010.29
2018-09-17T03:11:46.152Z,1010.3
2018-09-17T03:12:26.604Z,1010.31
2018-09-17T03:13:07.024Z,1010.33
2018-09-17T03:13:47.381Z,1010.35
2018-09-17T03:14:27.801Z,1010.36
2018-09-17T03:15:08.170Z,1010.39
2018-09-17T03:15:48.593Z,1010.35
2018-09-17T03:16:29.001Z,1010.41
2018-09-17T03:17:09.348Z,1010.38
2018-09-17T03:17:49.847Z,1010.42
2018-09-17T03:18:30.427Z,1010.38
2018-09-17T03:19:10.724Z,1010.38
2018-09-17T03:19:51.095Z,1010.39
2018-09-17T03:20:31.575Z,1010.35
2018-09-17T03:21:12.060Z,1010.34
2018-09-17T03:21:52.406Z,1010.34
2018-09-17T03:22:32.807Z,1010.31
2018-09-17T03:23:13.399Z,1010.36
2018-09-17T03:23:53.736Z,1010.34
2018-09-17T03:24:34.125Z,1010.38
2018-09-17T03:25:14.506Z,1010.36
2018-09-17T03:25:54.974Z,1010.4
2018-09-17T03:26:35.373Z,1010.42
2018-09-17T03:27:15.854Z,1010.42
2018-09-17T03:27:56.507Z,1010.43
2018-09-17T03:28:36.784Z,1010.44
2018-09-17T03:29:17.172Z,1010.44
2018-09-17T03:29:57.679Z,1010.48
2018-09-17T03:30:38.020Z,1010.45
2018-09-17T03:31:18.609Z,1010.46
2018-09-17T03:31:59.070Z,1010.49
2018-09-17T03:32:39.374Z,1010.53
2018-09-17T03:33:19.738Z,1010.51
2018-09-17T03:34:00.160Z,1010.53
2018-09-17T03:34:40.577Z,1010.55
2018-09-17T03:35:20.989Z,1010.51
2018-09-17T03:36:01.308Z,1010.59
2018-09-17T03:36:41.746Z,1010.61
2018-09-17T03:37:22.208Z,1010.61
2018-09-17T03:38:02.549Z,1010.61
2018-09-17T03:38:43.078Z,1010.58
2018-09-17T03:39:23.426Z,1010.63
2018-09-17T03:40:03.937Z,1010.6
2018-09-17T03:40:44.224Z,1010.63
2018-09-17T03:41:24.811Z,1010.63
2018-09-17T03:42:05.093Z,1010.61
2018-09-17T03:42:45.566Z,1010.59
2018-09-17T03:43:26.012Z,1010.6
2018-09-17T03:44:06.356Z,1010.6
2018-09-17T03:44:46.764Z,1010.58
2018-09-17T03:45:27.296Z,1010.6
2018-09-17T03:46:07.655Z,1010.57
2018-09-17T03:46:48.105Z,1010.6
2018-09-17T03:47:28.406Z,1010.58
2018-09-17T03:48:08.768Z,1010.62
2018-09-17T03:48:49.208Z,1010.62
2018-09-17T03:49:29.649Z,1010.61
2018-09-17T03:50:10.005Z,1010.63
2018-09-17T03:50:50.413Z,1010.65
2018-09-17T03:51:30.870Z,1010.61
2018-09-17T03:52:11.221Z,1010.64
2018-09-17T03:52:51.736Z,1010.66
2018-09-17T03:53:32.052Z,1010.64
2018-09-17T03:54:12.447Z,1010.69
2018-09-17T03:54:52.868Z,1010.66
2018-09-17T03:55:33.317Z,1010.68
2018-09-17T03:56:13.731Z,1010.64
2018-09-17T03:56:54.129Z,1010.69
2018-09-17T03:57:34.516Z,1010.68
2018-09-17T03:58:14.890Z,1010.66
2018-09-17T03:58:55.260Z,1010.66
2018-09-17T03:59:35.703Z,1010.67
2018-09-17T04:00:16.053Z,1010.67
2018-09-17T04:00:56.467Z,1010.66
2018-09-17T04:01:36.811Z,1010.63
2018-09-17T04:02:17.264Z,1010.65
2018-09-17T04:02:57.671Z,1010.63
2018-09-17T04:03:38.122Z,1010.64
2018-09-17T04:04:18.467Z,1010.64
2018-09-17T04:05:13.700Z,1010.64
2018-09-17T04:05:54.105Z,1010.65
2018-09-17T04:06:34.471Z,1010.69
2018-09-17T04:07:14.895Z,1010.69
2018-09-17T04:07:55.394Z,1010.68
2018-09-17T04:08:35.790Z,1010.7
2018-09-17T04:09:16.123Z,1010.69
2018-09-17T04:09:56.619Z,1010.69
2018-09-17T04:12:10.875Z,1010.73
2018-09-17T04:12:51.086Z,1010.7
2018-09-17T04:13:31.554Z,1010.75
2018-09-17T04:14:11.991Z,1010.68
2018-09-17T04:14:52.397Z,1010.69
2018-09-17T04:15:33.051Z,1010.73
2018-09-17T04:16:13.832Z,1010.67
2018-09-17T04:16:54.277Z,1010.7
2018-09-17T04:17:34.642Z,1010.68
2018-09-17T04:18:15.076Z,1010.69
2018-09-17T04:18:55.569Z,1010.68
2018-09-17T04:19:35.972Z,1010.7
2018-09-17T04:20:16.282Z,1010.67
2018-09-17T04:20:56.701Z,1010.66
2018-09-17T04:21:37.103Z,1010.64
2018-09-17T04:22:17.495Z,1010.6
2018-09-17T04:22:57.964Z,1010.63
2018-09-17T04:23:38.319Z,1010.6
2018-09-17T04:24:18.885Z,1010.6
2018-09-17T04:24:59.386Z,1010.63
2018-09-17T04:25:39.645Z,1010.57
2018-09-17T04:26:20.013Z,1010.51
2018-09-17T04:27:00.466Z,1010.51
2018-09-17T05:06:42.753Z,1010.51
2018-09-17T05:07:42.524Z,1010.27
2018-09-17T05:08:37.581Z,1010.45
2018-09-17T05:09:36.912Z,1010.5
2018-09-17T05:10:29.019Z,1010.52
2018-09-17T05:11:21.920Z,1010.52
2018-09-17T05:12:14.761Z,1010.54
2018-09-17T05:13:07.659Z,1010.56
2018-09-17T05:14:01.854Z,1010.55
2018-09-17T05:14:54.838Z,1010.58
2018-09-17T05:15:47.406Z,1010.61
2018-09-17T05:17:02.717Z,1010.41
2018-09-17T05:18:08.576Z,1010.62
2018-09-17T05:19:17.115Z,1010.71
2018-09-17T05:37:08.939Z,1010.76
2018-09-17T05:38:12.048Z,1010.73
2018-09-17T05:43:49.363Z,1010.53
2018-09-17T05:51:48.895Z,1010.68
2018-09-17T05:52:41.638Z,1010.72
2018-09-17T05:55:59.256Z,1010.63
2018-09-17T06:14:24.922Z,1010.85
2018-09-17T06:15:22.479Z,1010.86
2018-09-17T06:18:03.967Z,1010.91
2018-09-17T06:18:46.088Z,1010.86
2018-09-17T06:19:31.254Z,1010.91
2018-09-17T06:20:11.935Z,1010.89
2018-09-17T06:20:52.705Z,1010.9
2018-09-17T06:21:33.720Z,1010.86
2018-09-17T06:22:14.388Z,1010.9
2018-09-17T06:22:55.050Z,1010.93
2018-09-17T06:23:35.375Z,1010.91
2018-09-17T06:24:17.243Z,1010.92
2018-09-17T06:24:56.551Z,1010.95
2018-09-17T06:25:38.609Z,1010.95
2018-09-17T06:26:20.264Z,1010.98
2018-09-17T06:27:00.696Z,1010.99
2018-09-17T06:27:41.892Z,1011
2018-09-17T06:28:23.243Z,1011.01
2018-09-17T06:29:03.499Z,1011.01
2018-09-17T06:29:44.220Z,1010.99
2018-09-17T06:30:25.013Z,1011.06
2018-09-17T06:31:06.828Z,1011.02
2018-09-17T06:31:50.847Z,1011.05
2018-09-17T06:32:31.224Z,1011.06
2018-09-17T06:33:12.353Z,1011.05
2018-09-17T06:33:53.002Z,1011.13
2018-09-17T06:34:33.498Z,1011.07
2018-09-17T06:35:13.969Z,1011.1
2018-09-17T06:35:54.437Z,1011.13
2018-09-17T06:36:34.871Z,1011.13
2018-09-17T06:37:15.428Z,1011.14
2018-09-17T06:37:58.544Z,1011.06
2018-09-17T06:52:16.929Z,1011.25
2018-09-17T06:52:56.617Z,1011.26
2018-09-17T06:53:37.164Z,1011.26
2018-09-17T06:54:17.878Z,1011.29
2018-09-17T06:54:58.274Z,1011.3
2018-09-17T06:55:38.804Z,1011.36
2018-09-17T06:56:19.177Z,1011.36
2018-09-17T06:56:59.632Z,1011.33
2018-09-17T06:57:40.048Z,1011.35
2018-09-17T06:58:20.575Z,1011.39
2018-09-17T06:59:01.293Z,1011.37
2018-09-17T07:01:24.331Z,1011.42
2018-09-17T07:02:05.937Z,1011.4
2018-09-17T07:02:46.225Z,1011.36
2018-09-17T07:03:27.843Z,1011.37
2018-09-17T07:04:07.616Z,1011.39
2018-09-17T07:04:48.342Z,1011.4
2018-09-17T07:05:28.951Z,1011.39
2018-09-17T07:06:09.533Z,1011.39
2018-09-17T07:06:49.902Z,1011.37
2018-09-17T07:07:30.372Z,1011.41
2018-09-17T07:08:10.819Z,1011.39
2018-09-17T07:08:51.547Z,1011.39
2018-09-17T07:09:31.899Z,1011.39
2018-09-17T07:10:12.313Z,1011.41
2018-09-17T07:10:53.855Z,1011.43
2018-09-17T07:11:34.091Z,1011.4
2018-09-17T07:12:14.686Z,1011.42
2018-09-17T07:12:55.590Z,1011.38
2018-09-17T07:13:37.980Z,1011.38
2018-09-17T07:14:18.426Z,1011.38
2018-09-17T07:14:59.925Z,1011.38
2018-09-17T07:15:40.440Z,1011.39
2018-09-17T07:16:21.332Z,1011.39
2018-09-17T07:17:03.371Z,1011.41
2018-09-17T07:17:43.908Z,1011.43
2018-09-17T07:18:24.941Z,1011.45
2018-09-17T07:19:05.922Z,1011.47
2018-09-17T07:19:46.313Z,1011.46
2018-09-17T07:20:28.027Z,1011.46
2018-09-17T07:22:55.987Z,1011.42
2018-09-17T07:25:41.557Z,1011.38
2018-09-17T07:26:49.353Z,1011.38
2018-09-17T07:28:58.741Z,1011.4
2018-09-17T07:32:34.696Z,1011.39
2018-09-17T07:33:32.814Z,1011.37
2018-09-17T07:34:35.539Z,1011.32
2018-09-17T07:35:32.518Z,1011.33
2018-09-17T07:36:26.711Z,1011.35
2018-09-17T07:37:22.131Z,1011.29
2018-09-17T07:38:17.505Z,1011.31
2018-09-17T07:39:15.043Z,1011.3
2018-09-17T07:40:12.998Z,1011.32
2018-09-17T07:41:06.837Z,1011.29
2018-09-17T07:41:59.110Z,1011.29
2018-09-17T07:42:53.399Z,1011.31
2018-09-17T07:44:02.388Z,1011.32
2018-09-17T07:47:04.787Z,1011.27
2018-09-17T07:48:00.311Z,1011.29
2018-09-17T07:48:53.360Z,1011.3
2018-09-17T07:49:47.593Z,1011.28
2018-09-17T07:51:26.776Z,1011.25
2018-09-17T07:53:31.507Z,1011.25
2018-09-17T07:54:12.308Z,1011.24
2018-09-17T07:54:53.134Z,1011.3
2018-09-17T07:55:34.012Z,1011.24
2018-09-17T07:56:14.979Z,1011.27
2018-09-17T07:56:55.865Z,1011.24
2018-09-17T07:59:39.346Z,1011.23
2018-09-17T08:00:34.220Z,1011.23
2018-09-17T08:01:37.140Z,1011.23
2018-09-17T08:02:34.753Z,1011.2
2018-09-17T08:03:37.864Z,1011.22
2018-09-17T08:04:34.266Z,1011.19
2018-09-17T08:05:39.012Z,1011.19
2018-09-17T08:06:34.648Z,1011.16
2018-09-17T08:07:30.483Z,1011.18
2018-09-17T08:08:25.461Z,1011.11
2018-09-17T08:09:22.104Z,1011.12
2018-09-17T08:10:14.125Z,1011.09
2018-09-17T08:11:09.187Z,1011.07
2018-09-17T08:12:01.716Z,1011.09
2018-09-17T08:12:56.680Z,1011.1
2018-09-17T08:13:51.435Z,1011.11
2018-09-17T08:14:48.223Z,1011.07
2018-09-17T08:15:47.453Z,1011.12
2018-09-17T08:16:41.287Z,1011.13
2018-09-17T08:20:32.708Z,1011.13
2018-09-17T08:21:31.768Z,1011.12
2018-09-17T08:22:25.077Z,1011.14
2018-09-17T08:23:29.381Z,1011.17
2018-09-17T08:24:24.723Z,1011.17
2018-09-17T08:25:18.871Z,1011.16
2018-09-17T08:26:17.593Z,1011.2
2018-09-17T08:27:13.043Z,1011.18
2018-09-17T08:28:05.852Z,1011.16
2018-09-17T08:29:09.063Z,1011.17
2018-09-17T08:31:41.897Z,1011.19
2018-09-17T08:32:40.941Z,1011.18
2018-09-17T08:33:37.853Z,1011.18
2018-09-17T08:34:31.355Z,1011.14
2018-09-17T08:35:25.726Z,1011.15
2018-09-17T08:36:20.170Z,1011.18
2018-09-17T08:37:13.847Z,1011.13
2018-09-17T08:38:08.017Z,1011.15
2018-09-17T08:39:00.422Z,1011.12
2018-09-17T08:39:55.738Z,1011.12
2018-09-17T08:40:49.635Z,1011.1
2018-09-17T08:41:44.560Z,1011.11
2018-09-17T08:42:43.908Z,1011.13
2018-09-17T08:43:42.136Z,1011.11
2018-09-17T08:44:42.303Z,1011.11
2018-09-17T08:45:42.996Z,1011.12
2018-09-17T08:46:39.927Z,1011.07
2018-09-17T08:47:43.818Z,1011.06
2018-09-17T08:48:47.039Z,1011.06
2018-09-17T08:55:41.015Z,1011.04
2018-09-17T08:56:21.934Z,1011.02
2018-09-17T08:57:03.054Z,1011
2018-09-17T08:57:44.267Z,1011.01
2018-09-17T08:58:24.778Z,1011
2018-09-17T08:59:05.939Z,1010.99
2018-09-17T08:59:45.839Z,1011.01
2018-09-17T09:00:41.578Z,1010.97
2018-09-17T09:01:22.277Z,1010.98
2018-09-17T09:02:04.889Z,1010.97
2018-09-17T09:02:44.898Z,1010.99
2018-09-17T09:03:25.781Z,1011.01
2018-09-17T09:04:06.590Z,1010.99
2018-09-17T09:04:47.449Z,1011
2018-09-17T09:05:29.003Z,1011
2018-09-17T09:06:10.497Z,1010.97
2018-09-17T09:06:50.915Z,1010.98
2018-09-17T09:07:31.710Z,1010.99
2018-09-17T09:08:12.399Z,1011.01
2018-09-17T09:08:53.110Z,1010.98
2018-09-17T09:09:33.680Z,1010.99
2018-09-17T09:10:14.199Z,1010.97
2018-09-17T09:10:54.978Z,1011.02
2018-09-17T09:11:35.669Z,1011.01
2018-09-17T09:12:16.915Z,1011.03
2018-09-17T09:12:58.912Z,1011.02
2018-09-17T09:13:41.171Z,1011.05
2018-09-17T09:14:21.770Z,1011.06
2018-09-17T09:15:02.994Z,1011.02
2018-09-17T09:15:46.550Z,1011.04
2018-09-17T09:16:29.515Z,1011.04
2018-09-17T09:17:09.533Z,1011.03
2018-09-17T09:17:50.948Z,1011.01
2018-09-17T09:18:31.238Z,1011.03
2018-09-17T09:19:12.052Z,1011.06
2018-09-17T09:19:58.669Z,1011.02
2018-09-17T09:20:39.875Z,1011.03
2018-09-17T09:21:22.339Z,1011.02
2018-09-17T09:22:05.295Z,1011.03
2018-09-17T09:22:45.775Z,1010.98
2018-09-17T09:23:28.011Z,1011.01
2018-09-17T09:24:08.038Z,1010.99
2018-09-17T09:24:50.016Z,1010.97
2018-09-17T09:25:31.229Z,1010.95
2018-09-17T09:26:12.397Z,1010.96
2018-09-17T09:26:54.032Z,1010.92
2018-09-17T09:27:35.830Z,1010.9
2018-09-17T09:28:21.736Z,1010.87
2018-09-17T09:29:03.481Z,1010.88
2018-09-17T09:29:44.583Z,1010.86
2018-09-17T09:30:25.113Z,1010.83
2018-09-17T09:31:07.518Z,1010.81
2018-09-17T09:31:47.521Z,1010.85
2018-09-17T09:32:29.239Z,1010.8
2018-09-17T09:33:13.928Z,1010.78
2018-09-17T09:37:55.626Z,1010.69
2018-09-17T09:39:00.625Z,1010.68
2018-09-17T09:40:16.403Z,1010.65
2018-09-17T09:41:13.352Z,1010.66
2018-09-17T09:42:21.463Z,1010.6
2018-09-17T09:43:30.880Z,1010.66
2018-09-17T09:45:25.838Z,1010.67
2018-09-17T09:46:31.517Z,1010.64
2018-09-17T09:47:38.466Z,1010.64
2018-09-17T09:48:42.065Z,1010.67
2018-09-17T09:52:57.620Z,1010.62
2018-09-17T10:02:17.026Z,1010.55
2018-09-17T10:03:15.462Z,1010.56
2018-09-17T10:04:14.773Z,1010.53
2018-09-17T10:05:34.354Z,1010.52
2018-09-17T10:07:41.237Z,1010.47
2018-09-17T10:08:38.495Z,1010.49
2018-09-17T10:09:45.663Z,1010.51
2018-09-17T10:10:54.465Z,1010.49
2018-09-17T10:19:05.175Z,1010.41
2018-09-17T10:19:47.616Z,1010.37
2018-09-17T10:20:28.237Z,1010.37
2018-09-17T10:21:08.835Z,1010.36
2018-09-17T10:21:50.391Z,1010.34
2018-09-17T10:22:30.910Z,1010.36
2018-09-17T10:23:11.875Z,1010.33
2018-09-17T10:23:52.545Z,1010.33
2018-09-17T10:24:33.808Z,1010.35
2018-09-17T10:25:14.636Z,1010.31
2018-09-17T10:25:55.415Z,1010.33
2018-09-17T10:26:36.073Z,1010.31
2018-09-17T10:27:16.779Z,1010.27
2018-09-17T10:28:12.994Z,1010.24
2018-09-17T10:28:53.888Z,1010.25
2018-09-17T11:08:45.032Z,1009.95
2018-09-17T11:10:53.252Z,1009.9
2018-09-17T11:11:47.776Z,1009.88
2018-09-17T11:12:58.977Z,1009.79
2018-09-17T11:14:01.436Z,1009.8
2018-09-17T11:14:59.008Z,1009.79
2018-09-17T11:15:52.472Z,1009.82
2018-09-17T11:16:45.746Z,1009.86
2018-09-17T11:17:51.936Z,1009.78
2018-09-17T11:18:54.710Z,1009.75
2018-09-17T11:48:03.987Z,1009.5
2018-09-17T11:50:39.929Z,1009.46
2018-09-17T11:51:32.424Z,1009.46
2018-09-17T11:52:27.796Z,1009.48
2018-09-17T11:53:23.995Z,1009.5
2018-09-17T11:54:18.255Z,1009.46
2018-09-17T11:55:18.907Z,1009.45
2018-09-17T11:56:28.051Z,1009.45
2018-09-17T11:57:32.073Z,1009.45
2018-09-17T11:58:31.898Z,1009.48
2018-09-17T11:59:30.560Z,1009.42
2018-09-17T12:00:44.281Z,1009.46
2018-09-17T12:01:51.179Z,1009.39
2018-09-17T12:02:51.149Z,1009.4
2018-09-17T12:04:48.023Z,1009.38
2018-09-17T12:05:44.188Z,1009.36
2018-09-17T12:06:51.651Z,1009.34
2018-09-17T12:07:44.807Z,1009.31
2018-09-17T12:08:37.351Z,1009.33
2018-09-17T12:09:30.538Z,1009.35
2018-09-17T12:10:23.833Z,1009.32
2018-09-17T12:11:17.696Z,1009.32
2018-09-17T12:12:11.352Z,1009.27
2018-09-17T12:13:04.548Z,1009.29
2018-09-17T12:13:57.719Z,1009.26
2018-09-17T12:14:50.514Z,1009.3
2018-09-17T12:15:43.049Z,1009.24
2018-09-17T12:16:35.659Z,1009.23
2018-09-17T12:17:31.063Z,1009.2
2018-09-17T12:18:23.877Z,1009.23
2018-09-17T12:19:20.459Z,1009.26
2018-09-17T12:20:13.152Z,1009.22
2018-09-17T12:22:49.234Z,1009.17
2018-09-17T12:23:43.330Z,1009.19
2018-09-17T12:24:35.343Z,1009.22
2018-09-17T12:27:03.520Z,1009.18
2018-09-17T12:27:56.721Z,1009.16
2018-09-17T12:28:49.341Z,1009.13
2018-09-17T12:29:43.244Z,1009.14
2018-09-17T12:30:38.174Z,1009.17
2018-09-17T12:31:34.301Z,1009.12
2018-09-17T12:32:35.885Z,1009.09
2018-09-17T12:33:40.630Z,1009.07
2018-09-17T12:34:32.641Z,1009.07
2018-09-17T12:35:28.899Z,1009.02
2018-09-17T12:36:26.293Z,1009.05
2018-09-17T12:37:29.372Z,1009.03
2018-09-17T12:38:23.595Z,1009.04
2018-09-17T12:39:21.538Z,1009.04
2018-09-17T12:40:21.473Z,1009
2018-09-17T17:23:26.823Z,1006.35
2018-09-17T17:24:10.758Z,1006.31
2018-09-17T17:24:50.938Z,1006.34
2018-09-17T17:25:33.246Z,1006.33
2018-09-17T17:26:14.623Z,1006.35
2018-09-17T17:26:55.774Z,1006.35
2018-09-17T17:27:36.100Z,1006.34
2018-09-17T17:28:18.828Z,1006.35
2018-09-17T17:28:59.188Z,1006.36
2018-09-17T17:29:39.688Z,1006.33
2018-09-17T17:30:21.090Z,1006.31
2018-09-17T17:31:01.582Z,1006.33
2018-09-17T17:31:42.032Z,1006.34
2018-09-17T17:32:23.443Z,1006.34
2018-09-17T17:33:04.397Z,1006.32
2018-09-17T17:33:45.106Z,1006.32
2018-09-17T17:34:26.293Z,1006.32
2018-09-17T17:35:09.029Z,1006.36